createdAt,value
2023-05-08T05:00:28.637Z,9.73
2023-05-08T05:02:55.390Z,9.79
2023-05-08T05:05:23.527Z,9.82
2023-05-08T05:07:50.734Z,9.88
2023-05-08T05:10:19.732Z,9.94
2023-05-08T05:12:46.587Z,9.99
2023-05-08T05:15:14.857Z,10.09
2023-05-08T05:17:41.860Z,10.14
2023-05-08T05:20:10.577Z,10.20
2023-05-08T05:22:37.382Z,10.30
2023-05-08T05:29:00.382Z,10.43
2023-05-08T05:31:37.838Z,10.46
2023-05-08T05:34:13.422Z,10.47
2023-05-08T05:36:56.448Z,10.54
2023-05-08T05:39:23.825Z,10.59
2023-05-08T05:41:58.718Z,10.64
2023-05-08T05:44:36.106Z,10.71
2023-05-08T05:47:15.427Z,10.80
2023-05-08T05:49:50.205Z,10.87
2023-05-08T05:52:17.000Z,10.95
2023-05-08T05:54:44.219Z,11.14
2023-05-08T05:57:13.157Z,11.28
2023-05-08T05:59:41.605Z,11.49
2023-05-08T06:02:10.458Z,11.66
2023-05-08T06:04:38.542Z,11.88
2023-05-08T06:07:06.847Z,12.15
2023-05-08T06:09:34.130Z,12.28
2023-05-08T06:12:00.875Z,12.50
2023-05-08T06:14:28.474Z,12.75
2023-05-08T06:16:55.074Z,13.10
2023-05-08T06:19:24.499Z,13.39
2023-05-08T06:21:52.100Z,13.69
2023-05-08T06:24:19.508Z,13.98
2023-05-08T06:26:46.824Z,14.31
2023-05-08T06:29:14.125Z,14.48
2023-05-08T06:31:40.755Z,14.73
2023-05-08T06:34:08.308Z,14.86
2023-05-08T06:36:34.979Z,14.96
2023-05-08T06:39:05.609Z,15.04
2023-05-08T06:42:11.694Z,15.25
2023-05-08T06:44:45.371Z,15.44
2023-05-08T06:47:15.319Z,15.51
2023-05-08T06:49:42.993Z,15.61
2023-05-08T06:52:17.009Z,15.71
2023-05-08T06:54:52.682Z,15.81
2023-05-08T06:57:32.295Z,15.85
2023-05-08T07:00:14.079Z,15.88
2023-05-08T07:02:45.527Z,15.98
2023-05-08T07:05:25.088Z,16.04
2023-05-08T07:07:56.852Z,16.00
2023-05-08T07:10:30.124Z,16.11
2023-05-08T07:16:20.565Z,16.31
2023-05-08T08:09:44.576Z,18.75
2023-05-08T08:23:08.695Z,20.39
2023-05-08T08:25:35.343Z,20.70
2023-05-08T08:28:02.601Z,20.98
2023-05-08T08:30:29.317Z,21.21
2023-05-08T08:32:56.324Z,21.33
2023-05-08T08:35:29.497Z,21.57
2023-05-08T08:37:57.008Z,21.72
2023-05-08T08:40:23.745Z,21.84
2023-05-08T08:42:51.208Z,21.92
2023-05-08T08:45:17.814Z,21.83
2023-05-08T08:47:45.539Z,21.95
2023-05-08T08:50:14.941Z,22.02
2023-05-08T08:52:56.064Z,22.20
2023-05-08T08:55:25.553Z,22.34
2023-05-08T08:58:33.733Z,22.67
2023-05-08T09:01:01.059Z,22.93
2023-05-08T09:03:28.622Z,23.18
2023-05-08T09:05:55.449Z,23.31
2023-05-08T09:08:22.682Z,23.36
2023-05-08T09:10:49.417Z,23.66
2023-05-08T09:13:18.846Z,23.68
2023-05-08T09:15:46.594Z,23.88
2023-05-08T09:18:13.940Z,24.11
2023-05-08T09:20:41.031Z,24.12
2023-05-08T09:23:08.649Z,24.07
2023-05-08T09:25:46.142Z,24.02
2023-05-08T09:28:26.729Z,24.21
2023-05-08T09:30:57.119Z,24.70
2023-05-08T09:33:28.995Z,24.64
2023-05-08T09:35:57.452Z,24.77
2023-05-08T09:38:39.625Z,24.98
2023-05-08T09:41:17.020Z,25.24
2023-05-08T09:44:00.170Z,25.51
2023-05-08T09:46:27.378Z,25.96
2023-05-08T09:48:59.808Z,26.02
2023-05-08T09:51:28.415Z,26.09
2023-05-08T09:53:58.048Z,26.11
2023-05-08T09:56:35.678Z,25.97
2023-05-08T09:59:04.881Z,25.54
2023-05-08T10:01:32.946Z,25.33
2023-05-08T10:04:01.021Z,25.61
2023-05-08T10:06:28.863Z,26.02
2023-05-08T10:09:12.943Z,26.58
2023-05-08T10:11:41.335Z,26.79
2023-05-08T10:14:09.375Z,26.96
2023-05-08T10:16:43.680Z,26.90
2023-05-08T10:19:14.763Z,26.88
2023-05-08T10:21:46.669Z,26.96
2023-05-08T10:24:27.988Z,26.99
2023-05-08T10:27:19.584Z,27.03
2023-05-08T10:29:54.081Z,26.98
2023-05-08T10:32:23.016Z,26.97
2023-05-08T10:34:52.670Z,26.77
2023-05-08T10:37:20.256Z,26.60
2023-05-08T10:39:49.786Z,26.44
2023-05-08T10:42:16.742Z,26.66
2023-05-08T10:44:44.379Z,26.90
2023-05-08T10:47:25.219Z,27.08
2023-05-08T10:49:59.162Z,27.56
2023-05-08T10:53:03.666Z,27.69
2023-05-08T10:55:33.399Z,27.51
2023-05-08T10:58:09.041Z,27.32
2023-05-08T11:00:59.834Z,27.17
2023-05-08T11:03:31.958Z,26.94
2023-05-08T11:06:01.846Z,26.85
2023-05-08T11:08:30.733Z,26.79
2023-05-08T11:11:00.672Z,26.84
2023-05-08T11:14:06.168Z,27.24
2023-05-08T11:16:54.938Z,27.70
2023-05-08T11:19:26.514Z,27.57
2023-05-08T11:22:19.400Z,27.04
2023-05-08T11:27:43.496Z,26.39
2023-05-08T11:30:39.304Z,26.27
2023-05-08T11:33:07.255Z,26.09
2023-05-08T11:36:01.421Z,25.87
2023-05-08T11:38:36.223Z,25.67
2023-05-08T11:41:05.430Z,25.85
2023-05-08T11:43:38.255Z,25.69
2023-05-08T11:46:14.885Z,25.55
2023-05-08T11:48:42.626Z,25.41
2023-05-08T11:51:10.205Z,25.30
2023-05-08T11:53:38.630Z,25.03
2023-05-08T11:56:06.039Z,24.67
2023-05-08T11:58:33.290Z,24.66
2023-05-08T12:01:01.030Z,24.42
2023-05-08T12:03:27.874Z,24.13
2023-05-08T12:05:59.632Z,24.14
2023-05-08T12:08:27.025Z,24.14
2023-05-08T12:10:57.003Z,24.17
2023-05-08T12:13:28.226Z,24.19
2023-05-08T12:15:56.960Z,24.20
2023-05-08T12:18:25.720Z,24.23
2023-05-08T12:20:54.217Z,24.17
2023-05-08T12:23:21.062Z,24.10
2023-05-08T12:25:48.462Z,24.15
2023-05-08T12:28:15.781Z,24.34
2023-05-08T12:30:43.237Z,24.34
2023-05-08T12:33:11.067Z,24.26
2023-05-08T12:35:40.201Z,24.16
2023-05-08T12:38:08.812Z,24.08
2023-05-08T12:40:40.761Z,23.98
2023-05-08T12:43:08.299Z,23.99
2023-05-08T12:45:39.303Z,23.89
2023-05-08T12:48:08.412Z,23.94
2023-05-08T12:50:37.318Z,23.93
2023-05-08T12:53:06.129Z,23.97
2023-05-08T12:55:35.295Z,24.01
2023-05-08T12:58:07.734Z,23.86
2023-05-08T13:00:40.236Z,23.78
2023-05-08T13:03:08.784Z,23.66
2023-05-08T13:05:38.101Z,23.54
2023-05-08T13:08:09.630Z,23.56
2023-05-08T13:10:56.622Z,23.51
2023-05-08T13:13:26.313Z,23.50
2023-05-08T13:15:55.432Z,23.46
2023-05-08T13:18:24.697Z,23.40
2023-05-08T13:20:51.456Z,23.38
2023-05-08T13:23:18.763Z,23.32
2023-05-08T13:25:45.404Z,23.16
2023-05-08T13:28:12.368Z,23.18
2023-05-08T13:30:39.805Z,23.15
2023-05-08T13:33:06.501Z,23.09
2023-05-08T13:35:34.484Z,23.02
2023-05-08T13:38:01.615Z,22.94
2023-05-08T13:40:29.221Z,23.05
2023-05-08T13:42:56.017Z,23.05
2023-05-08T13:45:23.211Z,22.98
2023-05-08T13:47:50.615Z,22.99
2023-05-08T13:50:20.175Z,22.95
2023-05-08T13:52:46.767Z,23.01
2023-05-08T13:55:14.446Z,23.01
2023-05-08T13:57:41.297Z,22.97
2023-05-08T14:00:09.432Z,22.85
2023-05-08T14:02:42.981Z,22.73
2023-05-08T14:05:10.426Z,22.67
2023-05-08T14:07:37.142Z,22.63
2023-05-08T14:10:05.036Z,22.54
2023-05-08T14:12:36.473Z,22.48
2023-05-08T14:15:07.160Z,22.41
2023-05-08T14:17:34.159Z,22.44
2023-05-08T14:20:00.959Z,22.35
2023-05-08T14:22:27.983Z,22.28
2023-05-08T14:24:55.098Z,22.23
2023-05-08T14:27:22.203Z,21.62
2023-05-08T14:29:49.209Z,21.25
2023-05-08T14:32:16.649Z,20.61
2023-05-08T14:34:43.268Z,20.07
2023-05-08T14:37:11.579Z,19.90
2023-05-08T14:39:38.949Z,19.94
2023-05-08T14:44:38.793Z,20.11
2023-05-08T14:47:08.080Z,20.22
2023-05-08T14:49:39.721Z,20.22
2023-05-08T14:52:08.001Z,20.21
2023-05-08T14:54:35.859Z,20.22
2023-05-08T14:57:08.745Z,20.20
2023-05-08T14:59:36.502Z,20.14
2023-05-08T15:02:04.718Z,20.17
2023-05-08T15:04:32.360Z,20.14
2023-05-08T15:06:59.462Z,20.09
2023-05-08T15:09:27.046Z,20.12
2023-05-08T15:11:57.043Z,20.12
2023-05-08T15:14:24.986Z,20.11
2023-05-08T15:16:52.151Z,20.08
2023-05-08T15:19:19.645Z,19.98
2023-05-08T15:21:46.796Z,19.79
2023-05-08T15:24:14.265Z,19.64
2023-05-08T15:26:41.566Z,19.45
2023-05-08T15:29:08.989Z,19.28
2023-05-08T15:31:35.857Z,19.24
2023-05-08T15:34:05.010Z,19.30
2023-05-08T15:36:34.085Z,19.26
2023-05-08T15:39:01.530Z,19.29
2023-05-08T15:41:28.466Z,19.32
2023-05-08T15:43:56.063Z,19.29
2023-05-08T15:46:23.147Z,19.25
2023-05-08T15:48:50.606Z,19.22
2023-05-08T15:51:18.032Z,19.15
2023-05-08T15:53:45.571Z,19.12
2023-05-08T15:56:12.695Z,19.10
2023-05-08T15:58:40.951Z,19.08
2023-05-08T16:01:08.877Z,19.00
2023-05-08T16:03:36.331Z,18.94
2023-05-08T16:06:04.669Z,18.80
2023-05-08T16:08:32.485Z,18.86
2023-05-08T16:11:00.250Z,18.82
2023-05-08T16:13:28.535Z,18.82
2023-05-08T16:15:55.262Z,18.83
2023-05-08T16:18:28.608Z,18.83
2023-05-08T16:20:55.485Z,18.77
2023-05-08T16:23:23.262Z,18.77
2023-05-08T16:25:50.144Z,18.73
2023-05-08T16:28:17.615Z,18.71
2023-05-08T16:30:44.572Z,18.63
2023-05-08T16:33:12.870Z,18.56
2023-05-08T16:35:41.698Z,18.55
2023-05-08T16:38:09.045Z,18.48
2023-05-08T16:40:35.828Z,18.44
2023-05-08T16:43:02.859Z,18.42
2023-05-08T16:45:29.404Z,18.34
2023-05-08T16:47:56.840Z,18.31
2023-05-08T16:50:23.864Z,18.30
2023-05-08T16:52:51.011Z,18.30
2023-05-08T16:55:17.788Z,18.29
2023-05-08T16:57:44.831Z,18.29
2023-05-08T17:00:12.385Z,18.27
2023-05-08T17:02:39.582Z,18.21
2023-05-08T17:05:06.954Z,18.19
2023-05-08T17:07:34.275Z,18.18
2023-05-08T17:10:01.691Z,18.21
2023-05-08T17:12:29.476Z,18.15
2023-05-08T17:14:56.942Z,18.17
2023-05-08T17:17:24.712Z,18.17
2023-05-08T17:19:57.124Z,18.18
2023-05-08T17:22:24.842Z,18.18
2023-05-08T17:24:52.217Z,18.18
2023-05-08T17:27:25.650Z,18.18
2023-05-08T17:29:57.088Z,18.18
2023-05-08T17:33:20.944Z,18.15
2023-05-08T17:35:50.808Z,18.21
2023-05-08T17:38:19.462Z,18.18
2023-05-08T17:40:48.193Z,18.16
2023-05-08T17:43:20.627Z,18.16
2023-05-08T17:45:57.668Z,18.11
2023-05-08T17:48:25.768Z,18.08
2023-05-08T17:50:56.516Z,18.06
2023-05-08T17:53:26.410Z,18.01
2023-05-08T17:55:54.367Z,18.00
2023-05-08T17:58:27.936Z,17.98
2023-05-08T18:00:57.915Z,17.96
2023-05-08T18:03:27.102Z,17.93
2023-05-08T18:05:56.802Z,17.93
2023-05-08T18:08:24.755Z,17.89
2023-05-08T18:10:52.359Z,17.82
2023-05-08T18:13:21.294Z,17.77
2023-05-08T18:15:48.182Z,17.78
2023-05-08T18:18:15.157Z,17.78
2023-05-08T18:20:41.740Z,17.72
2023-05-08T18:23:09.185Z,17.67
2023-05-08T18:25:36.259Z,17.65
2023-05-08T18:28:03.350Z,17.63
2023-05-08T18:30:31.493Z,17.61
2023-05-08T18:32:58.593Z,17.57
2023-05-08T18:35:25.801Z,17.50
2023-05-08T18:37:53.380Z,17.44
2023-05-08T18:40:20.150Z,17.42
2023-05-08T18:42:47.754Z,17.35
2023-05-08T18:45:14.617Z,17.21
2023-05-08T18:47:42.040Z,17.15
2023-05-08T18:50:09.416Z,17.12
2023-05-08T18:52:36.641Z,17.03
2023-05-08T18:55:03.750Z,16.97
2023-05-08T18:57:31.491Z,16.86
2023-05-08T18:59:58.718Z,16.78
2023-05-08T19:02:29.258Z,16.72
2023-05-08T19:04:58.526Z,16.68
2023-05-08T19:07:25.981Z,16.68
2023-05-08T19:09:55.660Z,16.67
2023-05-08T19:12:23.643Z,16.64
2023-05-08T19:14:51.557Z,16.61
2023-05-08T19:17:18.772Z,16.56
2023-05-08T19:19:46.268Z,16.53
2023-05-08T19:22:13.568Z,16.45
2023-05-08T19:24:41.258Z,16.40
2023-05-08T19:27:11.321Z,16.36
2023-05-08T19:29:38.806Z,16.31
2023-05-08T19:32:05.624Z,16.23
2023-05-08T19:34:33.746Z,16.16
2023-05-08T19:37:03.600Z,16.09
2023-05-08T19:39:35.051Z,16.04
2023-05-08T19:42:03.917Z,15.99
2023-05-08T19:44:32.611Z,15.89
2023-05-08T19:47:03.152Z,15.82
2023-05-08T19:49:31.034Z,15.75
2023-05-08T19:51:58.525Z,15.70
2023-05-08T19:54:25.388Z,15.60
2023-05-08T19:56:52.683Z,15.53
2023-05-08T19:59:19.292Z,15.46
2023-05-08T20:01:46.713Z,15.43
2023-05-08T20:04:13.634Z,15.38
2023-05-08T20:06:41.104Z,15.32
2023-05-08T20:09:07.986Z,15.24
2023-05-08T20:11:35.317Z,15.19
2023-05-08T20:14:02.083Z,15.13
2023-05-08T20:16:29.762Z,15.10
2023-05-08T20:18:56.914Z,15.07
2023-05-08T20:21:24.255Z,15.06
2023-05-08T20:23:50.986Z,14.98
2023-05-08T20:26:18.428Z,14.97
2023-05-08T20:28:45.041Z,14.93
